Wallace, Indiana
Current Conditions -  °F | °C
As of 4:35 AM on Wednesday 22 Oct 2014 (Local Time) from KDNV Reporting Station
Clear Clear  
Wind Chill: 33°   Ceiling: Unl
Heat Index: 37°   Visibility: 10mi
Dew Point: 35°   Wind: 5mph
Humidity: 92%   Direction: 20°NNE
Pressure: 30.24"   Gusts: NA
Location:  39.99°N, 87.15°W
Report Text: KDNV 220835Z AUTO 02004KT 10SM CLR 03/02 A3024 RMK AO2 T00270015
Loading
Personal Weather Stations






























Interactive Weather Map
Tropical Storm Tracking
New forecast layout! Learn more

10-Day Weather Forecast

Advertisements
Track Severe Weather on mobile